Time;durP1;ratioP1;P1;durP2;ratioP2;P2;SDS_P1;SDS_P2;PMS_P1;PMS_P2;Temp;Humidity;BMP_temperature;BMP_pressure;BME280_temperature;BME280_humidity;BME280_pressure;Samples;Min_cycle;Max_cycle;Signal;HPM_P1;HPM_P2
2024/01/28 00:01:49;;;;;;;12.90;6.20;;;;;;;;;;5033836;28;20198;-66
2024/01/28 00:04:15;;;;;;;17.63;6.15;;;;;;;;;;5033792;28;20195;-66
2024/01/28 00:06:42;;;;;;;11.73;5.70;;;;;;;;;;5033716;28;20214;-66
2024/01/28 00:09:09;;;;;;;9.00;6.32;;;;;;;;;;5033515;28;20672;-66
2024/01/28 00:11:39;;;;;;;14.48;4.90;;;;;;;;;;5033770;28;20601;-66
2024/01/28 00:14:06;;;;;;;9.57;5.00;;;;;;;;;;5033821;28;20240;-66
2024/01/28 00:16:33;;;;;;;9.02;5.05;;;;;;;;;;5033601;28;20285;-66
2024/01/28 00:19:00;;;;;;;10.80;5.07;;;;;;;;;;5033481;28;20255;-66
2024/01/28 00:21:27;;;;;;;12.45;5.50;;;;;;;;;;5033675;28;20233;-66
2024/01/28 00:23:55;;;;;;;9.25;5.70;;;;;;;;;;5033276;28;20244;-66
2024/01/28 00:26:22;;;;;;;12.77;5.30;;;;;;;;;;5033328;28;20245;-66
2024/01/28 00:28:50;;;;;;;10.57;5.85;;;;;;;;;;5033467;28;20226;-66
2024/01/28 00:31:17;;;;;;;12.95;6.05;;;;;;;;;;5033391;28;20708;-66
2024/01/28 00:33:44;;;;;;;12.40;5.93;;;;;;;;;;5033122;28;20708;-66
2024/01/28 00:36:15;;;;;;;15.43;6.65;;;;;;;;;;5033392;28;20186;-66
2024/01/28 00:38:42;;;;;;;11.27;5.95;;;;;;;;;;5033412;28;20598;-66
2024/01/28 00:41:09;;;;;;;11.60;5.65;;;;;;;;;;5033301;28;20527;-66
2024/01/28 00:43:36;;;;;;;10.55;6.00;;;;;;;;;;5032377;28;20622;-66
2024/01/28 00:46:04;;;;;;;9.25;5.03;;;;;;;;;;5033277;28;20190;-66
2024/01/28 00:48:31;;;;;;;8.27;5.07;;;;;;;;;;5033061;28;20191;-66
2024/01/28 00:50:58;;;;;;;7.63;4.53;;;;;;;;;;5032951;28;20199;-66
2024/01/28 00:53:25;;;;;;;10.50;4.90;;;;;;;;;;5033025;28;20222;-66
2024/01/28 00:55:52;;;;;;;8.02;4.05;;;;;;;;;;5033134;28;20186;-66
2024/01/28 00:58:19;;;;;;;10.63;4.18;;;;;;;;;;5033030;28;20186;-66
2024/01/28 01:00:46;;;;;;;12.90;4.88;;;;;;;;;;5032934;28;20281;-66
2024/01/28 01:03:14;;;;;;;11.05;4.63;;;;;;;;;;5032772;28;20734;-66
2024/01/28 01:05:41;;;;;;;7.05;4.05;;;;;;;;;;5033027;28;20191;-66
2024/01/28 01:08:08;;;;;;;10.80;4.38;;;;;;;;;;5032807;28;20677;-66
2024/01/28 01:10:35;;;;;;;8.30;4.32;;;;;;;;;;5032774;28;20710;-66
2024/01/28 01:13:02;;;;;;;7.78;3.70;;;;;;;;;;5032913;28;20222;-66
2024/01/28 01:15:29;;;;;;;9.45;3.80;;;;;;;;;;5032796;28;20221;-66
2024/01/28 01:17:57;;;;;;;10.10;4.78;;;;;;;;;;5032616;28;20241;-66
2024/01/28 01:20:25;;;;;;;7.15;4.45;;;;;;;;;;5032879;28;20285;-66
2024/01/28 01:22:53;;;;;;;6.70;4.07;;;;;;;;;;5032836;28;20566;-66
2024/01/28 01:25:20;;;;;;;6.20;3.67;;;;;;;;;;5032782;28;20218;-66
2024/01/28 01:27:48;;;;;;;6.18;3.75;;;;;;;;;;5032877;28;20285;-66
2024/01/28 01:30:16;;;;;;;7.75;3.80;;;;;;;;;;5032774;28;20669;-66
2024/01/28 01:32:43;;;;;;;7.70;4.43;;;;;;;;;;5032524;28;20222;-66
2024/01/28 01:35:10;;;;;;;7.82;4.75;;;;;;;;;;5032758;28;20187;-66
2024/01/28 01:37:38;;;;;;;10.20;4.10;;;;;;;;;;5032739;28;20717;-66
2024/01/28 01:40:07;;;;;;;5.05;3.35;;;;;;;;;;5032722;28;20622;-66
2024/01/28 01:42:34;;;;;;;8.88;5.00;;;;;;;;;;5032572;28;20190;-66
2024/01/28 01:45:00;;;;;;;12.73;4.50;;;;;;;;;;5032488;28;20606;-66
2024/01/28 01:47:28;;;;;;;15.75;4.57;;;;;;;;;;5032397;28;20230;-66
2024/01/28 01:49:55;;;;;;;8.27;4.20;;;;;;;;;;5032627;28;20191;-66
2024/01/28 01:52:23;;;;;;;7.50;4.70;;;;;;;;;;5032423;28;20274;-66
2024/01/28 01:54:52;;;;;;;7.82;3.53;;;;;;;;;;5035084;28;20201;-66
2024/01/28 01:57:20;;;;;;;7.75;3.90;;;;;;;;;;5036186;28;20187;-66
2024/01/28 01:59:47;;;;;;;10.43;4.45;;;;;;;;;;5036128;28;20190;-66
2024/01/28 02:02:15;;;;;;;11.77;4.25;;;;;;;;;;5036266;28;20281;-66
2024/01/28 02:04:43;;;;;;;9.30;4.32;;;;;;;;;;5036064;28;20260;-66
2024/01/28 02:07:10;;;;;;;10.25;5.43;;;;;;;;;;5036054;28;20218;-66
2024/01/28 02:09:37;;;;;;;11.82;4.80;;;;;;;;;;5035899;28;20286;-66
2024/01/28 02:12:06;;;;;;;9.75;4.72;;;;;;;;;;5035775;28;20191;-66
2024/01/28 02:14:33;;;;;;;5.30;3.95;;;;;;;;;;5035983;28;20611;-66
2024/01/28 02:17:01;;;;;;;11.13;4.80;;;;;;;;;;5035731;28;20737;-66
2024/01/28 02:19:28;;;;;;;10.25;4.68;;;;;;;;;;5035660;28;20669;-66
2024/01/28 02:21:55;;;;;;;10.48;4.68;;;;;;;;;;5035765;28;20199;-66
2024/01/28 02:24:23;;;;;;;8.45;5.13;;;;;;;;;;5035631;28;20282;-66
2024/01/28 02:26:50;;;;;;;14.45;5.13;;;;;;;;;;5035605;28;20408;-66
2024/01/28 02:29:17;;;;;;;9.15;5.13;;;;;;;;;;5035799;28;20642;-66
2024/01/28 02:31:45;;;;;;;9.27;4.55;;;;;;;;;;5035652;28;20286;-66
2024/01/28 02:34:12;;;;;;;9.35;4.43;;;;;;;;;;5035465;28;20222;-66
2024/01/28 02:36:39;;;;;;;13.32;5.13;;;;;;;;;;5035918;28;20186;-66
2024/01/28 02:39:06;;;;;;;6.53;4.30;;;;;;;;;;5035150;28;20199;-66
2024/01/28 02:41:34;;;;;;;6.57;4.97;;;;;;;;;;5035479;28;20197;-66
2024/01/28 02:44:01;;;;;;;13.98;4.40;;;;;;;;;;5035396;28;20281;-66
2024/01/28 02:46:28;;;;;;;9.93;4.65;;;;;;;;;;5035350;28;20201;-66
2024/01/28 02:48:56;;;;;;;8.30;4.70;;;;;;;;;;5035283;28;20191;-66
2024/01/28 02:51:23;;;;;;;7.15;4.30;;;;;;;;;;5035124;28;20230;-66
2024/01/28 02:53:50;;;;;;;11.02;5.20;;;;;;;;;;5034962;28;20305;-66
2024/01/28 02:56:16;;;;;;;10.98;4.90;;;;;;;;;;5035274;28;20201;-66
2024/01/28 02:58:45;;;;;;;5.95;4.32;;;;;;;;;;5035131;28;20282;-66
2024/01/28 03:01:12;;;;;;;7.68;4.80;;;;;;;;;;5035092;28;20290;-66
2024/01/28 03:03:39;;;;;;;13.32;4.63;;;;;;;;;;5035033;28;20191;-66
2024/01/28 03:06:06;;;;;;;9.15;5.20;;;;;;;;;;5033914;28;20199;-66
2024/01/28 03:08:33;;;;;;;11.65;6.15;;;;;;;;;;5035054;28;20659;-66
2024/01/28 03:11:00;;;;;;;10.25;5.40;;;;;;;;;;5034994;28;20198;-66
2024/01/28 03:13:27;;;;;;;9.10;4.85;;;;;;;;;;5034756;28;20210;-66
2024/01/28 03:15:56;;;;;;;12.55;5.57;;;;;;;;;;5034757;28;20194;-66
2024/01/28 03:18:22;;;;;;;10.48;5.97;;;;;;;;;;5034749;28;20285;-66
2024/01/28 03:20:50;;;;;;;9.43;4.90;;;;;;;;;;5034510;28;20281;-66
2024/01/28 03:23:19;;;;;;;9.38;5.72;;;;;;;;;;5034797;28;20198;-66
2024/01/28 03:25:47;;;;;;;10.02;5.88;;;;;;;;;;5034678;28;20253;-66
2024/01/28 03:28:14;;;;;;;12.15;5.32;;;;;;;;;;5034515;28;20198;-66
2024/01/28 03:30:41;;;;;;;8.63;6.38;;;;;;;;;;5034475;28;20197;-66
2024/01/28 03:33:10;;;;;;;12.13;5.30;;;;;;;;;;5034317;28;20187;-66
2024/01/28 03:35:37;;;;;;;8.35;5.80;;;;;;;;;;5034323;28;20201;-66
2024/01/28 03:38:05;;;;;;;8.32;5.32;;;;;;;;;;5034464;28;20194;-66
2024/01/28 03:40:31;;;;;;;5.80;3.50;;;;;;;;;;5034368;28;20191;-66
2024/01/28 03:42:58;;;;;;;8.93;4.53;;;;;;;;;;5034217;28;20237;-66
2024/01/28 03:45:26;;;;;;;11.20;4.95;;;;;;;;;;5034148;28;20285;-66
2024/01/28 03:47:53;;;;;;;7.65;3.78;;;;;;;;;;5033992;28;20193;-66
2024/01/28 03:50:22;;;;;;;8.48;4.15;;;;;;;;;;5034229;28;20190;-66
2024/01/28 03:52:49;;;;;;;10.45;4.45;;;;;;;;;;5034137;28;20206;-66
2024/01/28 03:55:16;;;;;;;10.80;4.15;;;;;;;;;;5033936;28;20226;-65
2024/01/28 03:57:44;;;;;;;6.45;3.80;;;;;;;;;;5033950;28;20193;-66
2024/01/28 04:00:12;;;;;;;5.30;3.17;;;;;;;;;;5033862;28;20198;-66
2024/01/28 04:02:39;;;;;;;7.05;4.38;;;;;;;;;;5033740;28;20252;-66
2024/01/28 04:05:07;;;;;;;9.73;3.40;;;;;;;;;;5034156;28;20199;-66
2024/01/28 04:07:35;;;;;;;6.13;3.80;;;;;;;;;;5033789;28;20198;-66
2024/01/28 04:10:02;;;;;;;6.35;3.67;;;;;;;;;;5033769;28;20281;-66
2024/01/28 04:12:29;;;;;;;6.57;3.72;;;;;;;;;;5033650;28;20195;-66
2024/01/28 04:14:56;;;;;;;5.78;3.28;;;;;;;;;;5033411;28;20222;-66
2024/01/28 04:17:23;;;;;;;7.57;3.78;;;;;;;;;;5033658;28;20194;-66
2024/01/28 04:19:51;;;;;;;6.80;3.67;;;;;;;;;;5033719;28;20186;-66
2024/01/28 04:22:18;;;;;;;6.13;4.15;;;;;;;;;;5033510;28;20554;-66
2024/01/28 04:24:46;;;;;;;5.78;4.25;;;;;;;;;;5033454;28;20287;-66
2024/01/28 04:27:13;;;;;;;6.72;3.50;;;;;;;;;;5033442;28;20299;-66
2024/01/28 04:29:42;;;;;;;6.03;3.30;;;;;;;;;;5033277;28;20241;-66
2024/01/28 04:32:10;;;;;;;6.88;4.03;;;;;;;;;;5033474;28;20190;-66
2024/01/28 04:34:37;;;;;;;6.45;3.22;;;;;;;;;;5033152;28;20744;-66
2024/01/28 04:37:04;;;;;;;5.30;4.20;;;;;;;;;;5033260;28;20225;-66
2024/01/28 04:39:31;;;;;;;7.70;3.53;;;;;;;;;;5033226;28;20278;-66
2024/01/28 04:41:59;;;;;;;5.10;3.78;;;;;;;;;;5033126;28;20281;-66
2024/01/28 04:44:26;;;;;;;6.47;3.80;;;;;;;;;;5033359;28;20200;-66
2024/01/28 04:46:55;;;;;;;9.40;4.30;;;;;;;;;;5033218;28;20237;-66
2024/01/28 04:49:21;;;;;;;5.45;3.90;;;;;;;;;;5033328;28;20192;-67
2024/01/28 04:51:48;;;;;;;6.72;3.80;;;;;;;;;;5033071;28;20241;-66
2024/01/28 04:54:15;;;;;;;7.68;4.00;;;;;;;;;;5032860;28;20249;-66
2024/01/28 04:56:42;;;;;;;10.05;5.18;;;;;;;;;;5032721;28;20253;-65
2024/01/28 04:59:11;;;;;;;7.00;4.32;;;;;;;;;;5033366;28;20281;-66
2024/01/28 05:01:38;;;;;;;6.38;3.53;;;;;;;;;;5033355;28;20194;-65
2024/01/28 05:04:05;;;;;;;7.95;3.80;;;;;;;;;;5033035;28;20289;-66
2024/01/28 05:06:35;;;;;;;7.82;3.53;;;;;;;;;;5032934;28;20194;-66
2024/01/28 05:09:03;;;;;;;7.45;3.80;;;;;;;;;;5032760;28;20195;-66
2024/01/28 05:11:31;;;;;;;11.07;3.35;;;;;;;;;;5032979;28;20273;-66
2024/01/28 05:13:58;;;;;;;5.82;3.35;;;;;;;;;;5032831;28;20368;-66
2024/01/28 05:16:26;;;;;;;5.93;3.53;;;;;;;;;;5032955;28;20195;-66
2024/01/28 05:18:53;;;;;;;4.13;3.20;;;;;;;;;;5032913;28;20285;-66
2024/01/28 05:21:20;;;;;;;5.40;3.58;;;;;;;;;;5032829;28;20577;-66
2024/01/28 05:23:48;;;;;;;7.68;4.10;;;;;;;;;;5032625;28;20282;-66
2024/01/28 05:26:14;;;;;;;7.88;4.78;;;;;;;;;;5032794;28;20305;-66
2024/01/28 05:28:42;;;;;;;6.50;3.50;;;;;;;;;;5033529;28;20217;-66
2024/01/28 05:31:09;;;;;;;6.75;3.72;;;;;;;;;;5036799;28;20277;-66
2024/01/28 05:33:38;;;;;;;13.40;5.03;;;;;;;;;;5036720;28;20285;-66
2024/01/28 05:36:11;;;;;;;7.18;4.00;;;;;;;;;;5036577;28;20289;-66
2024/01/28 05:38:38;;;;;;;8.02;3.92;;;;;;;;;;5036798;28;20199;-66
2024/01/28 05:41:05;;;;;;;11.85;4.28;;;;;;;;;;5036445;28;20733;-66
2024/01/28 05:43:32;;;;;;;4.15;3.55;;;;;;;;;;5036309;28;20706;-66
2024/01/28 05:45:59;;;;;;;7.85;3.92;;;;;;;;;;5036509;28;20285;-66
2024/01/28 05:48:26;;;;;;;7.20;3.83;;;;;;;;;;5036362;28;20197;-66
2024/01/28 05:50:54;;;;;;;9.70;4.28;;;;;;;;;;5036168;28;20222;-66
2024/01/28 05:53:23;;;;;;;8.68;4.03;;;;;;;;;;5036150;28;20775;-66
2024/01/28 05:55:51;;;;;;;6.70;4.28;;;;;;;;;;5036269;28;20229;-66
2024/01/28 05:58:18;;;;;;;4.90;4.05;;;;;;;;;;5036091;28;20666;-66
2024/01/28 06:00:46;;;;;;;4.57;3.97;;;;;;;;;;5036115;28;20222;-66
2024/01/28 06:03:13;;;;;;;13.75;4.60;;;;;;;;;;5036035;28;20237;-66
2024/01/28 06:05:40;;;;;;;6.22;4.10;;;;;;;;;;5036179;28;20194;-66
2024/01/28 06:08:09;;;;;;;9.70;4.10;;;;;;;;;;5036066;28;20187;-66
2024/01/28 06:10:36;;;;;;;8.20;3.90;;;;;;;;;;5036093;28;20657;-66
2024/01/28 06:13:03;;;;;;;6.50;3.92;;;;;;;;;;5035926;28;20191;-66
2024/01/28 06:15:30;;;;;;;10.60;4.00;;;;;;;;;;5035803;28;20246;-66
2024/01/28 06:17:57;;;;;;;8.80;4.78;;;;;;;;;;5035700;28;20654;-66
2024/01/28 06:20:24;;;;;;;6.50;4.15;;;;;;;;;;5035905;28;20547;-67
2024/01/28 06:22:51;;;;;;;8.60;4.15;;;;;;;;;;5035651;28;20195;-67
2024/01/28 06:25:19;;;;;;;9.50;4.30;;;;;;;;;;5035427;28;20706;-67
2024/01/28 06:27:46;;;;;;;5.15;3.60;;;;;;;;;;5035682;28;20676;-67
2024/01/28 06:30:14;;;;;;;6.90;3.72;;;;;;;;;;5035629;28;20277;-67
2024/01/28 06:32:41;;;;;;;5.03;3.88;;;;;;;;;;5035367;28;20241;-67
2024/01/28 06:35:08;;;;;;;6.15;4.40;;;;;;;;;;5035506;28;20219;-67
2024/01/28 06:37:35;;;;;;;4.75;3.75;;;;;;;;;;5035580;28;20274;-67
2024/01/28 06:40:02;;;;;;;7.75;3.55;;;;;;;;;;5034513;28;20195;-67
2024/01/28 06:42:32;;;;;;;7.63;3.83;;;;;;;;;;5035085;28;20186;-67
2024/01/28 06:44:59;;;;;;;6.55;3.53;;;;;;;;;;5035245;28;20198;-67
2024/01/28 06:47:26;;;;;;;6.47;3.40;;;;;;;;;;5035184;28;20195;-67
2024/01/28 06:49:53;;;;;;;7.68;3.40;;;;;;;;;;5035385;28;20619;-67
2024/01/28 06:52:20;;;;;;;8.25;4.55;;;;;;;;;;5035155;28;20801;-67
2024/01/28 06:54:47;;;;;;;6.50;3.50;;;;;;;;;;5035148;28;20210;-67
2024/01/28 06:57:14;;;;;;;6.90;3.58;;;;;;;;;;5035148;28;20233;-67
2024/01/28 06:59:44;;;;;;;6.80;3.97;;;;;;;;;;5034957;28;20281;-67
2024/01/28 07:02:11;;;;;;;6.25;3.45;;;;;;;;;;5035116;28;20194;-67
2024/01/28 07:04:38;;;;;;;11.55;3.80;;;;;;;;;;5035116;28;20194;-67
2024/01/28 07:07:05;;;;;;;13.98;4.40;;;;;;;;;;5034975;28;20187;-67
2024/01/28 07:09:32;;;;;;;8.55;4.10;;;;;;;;;;5034934;28;20195;-67
2024/01/28 07:11:59;;;;;;;7.97;4.20;;;;;;;;;;5034687;28;20274;-67
2024/01/28 07:14:26;;;;;;;7.43;3.65;;;;;;;;;;5034598;28;20214;-67
2024/01/28 07:16:55;;;;;;;8.38;3.35;;;;;;;;;;5034838;28;20278;-67
2024/01/28 07:19:22;;;;;;;7.72;4.03;;;;;;;;;;5034760;28;20229;-67
2024/01/28 07:21:50;;;;;;;6.15;4.00;;;;;;;;;;5034638;28;20194;-67
2024/01/28 07:24:17;;;;;;;5.28;4.65;;;;;;;;;;5034504;28;20197;-67
2024/01/28 07:26:46;;;;;;;8.20;3.78;;;;;;;;;;5034334;28;20585;-67
2024/01/28 07:29:13;;;;;;;7.13;3.72;;;;;;;;;;5034646;28;20654;-67
2024/01/28 07:31:40;;;;;;;7.47;4.00;;;;;;;;;;5034131;28;20650;-67
2024/01/28 07:34:08;;;;;;;7.38;3.88;;;;;;;;;;5034242;28;20192;-67
2024/01/28 07:36:35;;;;;;;7.28;4.00;;;;;;;;;;5034352;28;20218;-67
2024/01/28 07:39:04;;;;;;;10.63;4.05;;;;;;;;;;5034175;28;20193;-67
2024/01/28 07:41:34;;;;;;;4.90;4.40;;;;;;;;;;5034401;28;20341;-67
2024/01/28 07:44:01;;;;;;;6.25;3.15;;;;;;;;;;5034368;28;20191;-67
2024/01/28 07:46:28;;;;;;;7.18;5.93;;;;;;;;;;5034303;28;20201;-67
2024/01/28 07:48:55;;;;;;;4.72;3.80;;;;;;;;;;5034069;28;20190;-67
2024/01/28 07:51:23;;;;;;;8.68;4.15;;;;;;;;;;5033659;28;20191;-67
2024/01/28 07:53:50;;;;;;;7.47;4.80;;;;;;;;;;5033904;28;20278;-67
2024/01/28 07:56:17;;;;;;;4.57;4.05;;;;;;;;;;5034031;28;20222;-67
2024/01/28 07:58:44;;;;;;;7.35;4.70;;;;;;;;;;5034027;28;20622;-67
2024/01/28 08:01:11;;;;;;;10.50;5.00;;;;;;;;;;5033949;28;20589;-67
2024/01/28 08:03:38;;;;;;;4.97;4.35;;;;;;;;;;5033904;28;20665;-67
2024/01/28 08:06:07;;;;;;;7.60;5.10;;;;;;;;;;5033719;28;20286;-67
2024/01/28 08:08:35;;;;;;;7.32;4.55;;;;;;;;;;5033856;28;20235;-67
2024/01/28 08:11:03;;;;;;;9.77;5.93;;;;;;;;;;5033809;28;20644;-67
2024/01/28 08:13:30;;;;;;;7.53;5.57;;;;;;;;;;5033758;28;20194;-67
2024/01/28 08:16:01;;;;;;;7.72;5.53;;;;;;;;;;5033538;28;20277;-67
2024/01/28 08:18:28;;;;;;;7.85;5.65;;;;;;;;;;5033579;28;20565;-67
2024/01/28 08:20:56;;;;;;;15.43;6.20;;;;;;;;;;5033654;28;20277;-67
2024/01/28 08:23:23;;;;;;;8.48;5.60;;;;;;;;;;5033600;28;20230;-67
2024/01/28 08:25:51;;;;;;;6.95;5.82;;;;;;;;;;5033406;28;20582;-67
2024/01/28 08:28:18;;;;;;;8.73;5.82;;;;;;;;;;5033411;28;20286;-67
2024/01/28 08:30:46;;;;;;;10.13;5.40;;;;;;;;;;5033285;28;20195;-67
2024/01/28 08:33:13;;;;;;;12.35;6.40;;;;;;;;;;5033216;28;20194;-67
2024/01/28 08:35:40;;;;;;;10.43;5.95;;;;;;;;;;5033304;28;20230;-67
2024/01/28 08:38:07;;;;;;;9.70;5.03;;;;;;;;;;5033305;28;20621;-67
2024/01/28 08:40:34;;;;;;;6.80;6.03;;;;;;;;;;5033315;28;20198;-67
2024/01/28 08:43:04;;;;;;;9.30;6.25;;;;;;;;;;5033174;28;20268;-67
2024/01/28 08:45:31;;;;;;;16.33;5.75;;;;;;;;;;5033068;28;20191;-67
2024/01/28 08:47:59;;;;;;;15.93;6.35;;;;;;;;;;5032982;28;20195;-67
2024/01/28 08:50:26;;;;;;;8.00;5.30;;;;;;;;;;5033188;28;20248;-67
2024/01/28 08:52:53;;;;;;;10.82;6.20;;;;;;;;;;5033130;28;20190;-67
2024/01/28 08:55:20;;;;;;;7.50;6.00;;;;;;;;;;5032973;28;20301;-67
2024/01/28 08:57:47;;;;;;;13.23;7.40;;;;;;;;;;5033160;28;20281;-67
2024/01/28 09:00:16;;;;;;;7.82;5.95;;;;;;;;;;5032942;28;20277;-67
2024/01/28 09:02:43;;;;;;;13.38;6.97;;;;;;;;;;5033006;28;20223;-67
2024/01/28 09:05:10;;;;;;;10.73;5.93;;;;;;;;;;5032513;28;20221;-67
2024/01/28 09:07:37;;;;;;;12.45;5.07;;;;;;;;;;5032868;28;20621;-67
2024/01/28 09:10:04;;;;;;;14.30;6.90;;;;;;;;;;5032829;28;20646;-67
2024/01/28 09:12:31;;;;;;;9.05;5.47;;;;;;;;;;5032783;28;20191;-67
2024/01/28 09:14:58;;;;;;;9.25;6.22;;;;;;;;;;5032490;28;20281;-67
2024/01/28 09:17:26;;;;;;;8.43;6.30;;;;;;;;;;5032755;28;20278;-66
2024/01/28 09:19:54;;;;;;;11.85;5.10;;;;;;;;;;5032913;28;20190;-67
2024/01/28 09:22:21;;;;;;;15.35;6.07;;;;;;;;;;5032702;28;20193;-67
2024/01/28 09:24:48;;;;;;;9.65;5.70;;;;;;;;;;5032671;28;20218;-67
2024/01/28 09:27:15;;;;;;;10.20;6.20;;;;;;;;;;5032799;28;20665;-67
2024/01/28 09:29:42;;;;;;;13.88;6.43;;;;;;;;;;5032563;28;20191;-67
2024/01/28 09:32:09;;;;;;;16.88;5.50;;;;;;;;;;5032707;28;20298;-67
2024/01/28 09:34:37;;;;;;;12.45;5.82;;;;;;;;;;5032633;28;20201;-67
2024/01/28 09:37:07;;;;;;;9.30;5.50;;;;;;;;;;5032586;28;20625;-67
2024/01/28 09:39:34;;;;;;;11.93;5.88;;;;;;;;;;5032744;28;20667;-67
2024/01/28 09:42:11;;;;;;;7.32;5.53;;;;;;;;;;5032518;28;20277;-67
2024/01/28 09:44:38;;;;;;;6.70;4.45;;;;;;;;;;5032873;28;20204;-67
2024/01/28 09:47:06;;;;;;;9.63;5.20;;;;;;;;;;5032607;28;20191;-67
2024/01/28 09:49:39;;;;;;;16.20;6.13;;;;;;;;;;5032544;28;20621;-67
2024/01/28 09:52:08;;;;;;;7.28;5.65;;;;;;;;;;5032447;28;20285;-67
2024/01/28 09:54:35;;;;;;;11.38;5.65;;;;;;;;;;5032194;28;20230;-67
2024/01/28 09:57:02;;;;;;;7.35;5.25;;;;;;;;;;5032553;28;20219;-66
2024/01/28 09:59:31;;;;;;;12.68;4.40;;;;;;;;;;5032567;28;20629;-67
2024/01/28 10:01:58;;;;;;;9.07;5.13;;;;;;;;;;5032562;28;20194;-67
2024/01/28 10:04:27;;;;;;;8.60;4.63;;;;;;;;;;5032368;28;20625;-67
2024/01/28 10:06:57;;;;;;;12.00;5.70;;;;;;;;;;5032244;28;20198;-67
2024/01/28 10:09:25;;;;;;;8.90;5.38;;;;;;;;;;5032416;28;20233;-67
2024/01/28 10:11:52;;;;;;;8.13;4.43;;;;;;;;;;5032337;28;20273;-67
2024/01/28 10:14:19;;;;;;;11.13;5.75;;;;;;;;;;5032172;28;20266;-67
2024/01/28 10:16:47;;;;;;;9.45;5.53;;;;;;;;;;5035979;28;20240;-67
2024/01/28 10:19:14;;;;;;;10.10;5.07;;;;;;;;;;5035729;28;20199;-67
2024/01/28 10:21:42;;;;;;;8.63;4.57;;;;;;;;;;5035560;28;20247;-67
2024/01/28 10:24:10;;;;;;;11.10;5.00;;;;;;;;;;5035556;28;20194;-67
2024/01/28 10:26:38;;;;;;;10.52;5.47;;;;;;;;;;5035487;28;20222;-67
2024/01/28 10:29:06;;;;;;;11.38;5.50;;;;;;;;;;5035682;28;20286;-67
2024/01/28 10:31:33;;;;;;;6.60;4.78;;;;;;;;;;5035573;28;20252;-67
2024/01/28 10:34:00;;;;;;;10.30;4.80;;;;;;;;;;5035362;28;20202;-67
2024/01/28 10:36:27;;;;;;;13.55;5.50;;;;;;;;;;5035288;28;20451;-67
2024/01/28 10:38:58;;;;;;;7.18;3.90;;;;;;;;;;5035336;28;20750;-67
2024/01/28 10:41:25;;;;;;;6.55;3.53;;;;;;;;;;5035376;28;20722;-67
2024/01/28 10:43:57;;;;;;;7.95;5.50;;;;;;;;;;5035342;28;20190;-67
2024/01/28 10:46:29;;;;;;;15.20;5.60;;;;;;;;;;5035359;28;20608;-67
2024/01/28 10:48:59;;;;;;;10.48;4.43;;;;;;;;;;5035027;28;20449;-67
2024/01/28 10:51:26;;;;;;;12.05;4.72;;;;;;;;;;5035735;28;20273;-67
2024/01/28 10:53:54;;;;;;;8.32;4.30;;;;;;;;;;5035191;28;20194;-67
2024/01/28 10:56:21;;;;;;;10.18;4.57;;;;;;;;;;5034756;28;20219;-67
2024/01/28 10:58:48;;;;;;;11.82;3.97;;;;;;;;;;5034968;28;20630;-67
2024/01/28 11:01:16;;;;;;;11.97;3.93;;;;;;;;;;5034846;28;20278;-67
2024/01/28 11:03:43;;;;;;;9.93;4.07;;;;;;;;;;5034711;28;21007;-67
2024/01/28 11:06:10;;;;;;;8.90;4.80;;;;;;;;;;5034984;28;20273;-67
2024/01/28 11:08:37;;;;;;;10.40;4.63;;;;;;;;;;5034862;28;20903;-67
2024/01/28 11:11:05;;;;;;;9.70;4.28;;;;;;;;;;5034873;28;20611;-67
2024/01/28 11:13:32;;;;;;;8.55;4.03;;;;;;;;;;5034732;28;20286;-67
2024/01/28 11:15:59;;;;;;;9.45;3.80;;;;;;;;;;5034490;28;20218;-67
2024/01/28 11:18:30;;;;;;;8.10;3.27;;;;;;;;;;5034788;28;20591;-67
2024/01/28 11:20:57;;;;;;;8.33;3.83;;;;;;;;;;5034748;28;20499;-67
2024/01/28 11:23:24;;;;;;;10.33;4.13;;;;;;;;;;5034377;28;20944;-67
2024/01/28 11:25:55;;;;;;;8.03;3.60;;;;;;;;;;5034080;28;20543;-67
2024/01/28 11:28:22;;;;;;;8.73;3.33;;;;;;;;;;5033971;28;20477;-67
2024/01/28 11:30:52;;;;;;;8.50;4.50;;;;;;;;;;5034581;28;20472;-67
2024/01/28 11:33:19;;;;;;;7.70;3.30;;;;;;;;;;5034412;28;20449;-67
2024/01/28 11:35:48;;;;;;;7.60;3.53;;;;;;;;;;5034082;28;20504;-67
2024/01/28 11:38:20;;;;;;;4.67;3.30;;;;;;;;;;5034005;28;20986;-67
2024/01/28 11:40:49;;;;;;;6.90;3.00;;;;;;;;;;5034154;28;20445;-67
2024/01/28 11:43:16;;;;;;;6.95;3.17;;;;;;;;;;5034385;28;20449;-67
2024/01/28 11:45:43;;;;;;;4.97;2.77;;;;;;;;;;5034232;28;20545;-67
2024/01/28 11:48:11;;;;;;;11.77;3.40;;;;;;;;;;5034121;28;20534;-67
2024/01/28 11:50:39;;;;;;;4.63;2.80;;;;;;;;;;5034022;28;20445;-67
2024/01/28 11:53:09;;;;;;;9.17;2.80;;;;;;;;;;5033889;28;20798;-67
2024/01/28 11:55:36;;;;;;;5.07;2.93;;;;;;;;;;5034008;28;20453;-67
2024/01/28 11:58:03;;;;;;;6.37;3.30;;;;;;;;;;5033877;28;20449;-67
2024/01/28 12:00:30;;;;;;;7.20;3.03;;;;;;;;;;5033822;28;20449;-67
2024/01/28 12:02:57;;;;;;;7.70;2.87;;;;;;;;;;5033698;28;20536;-67
2024/01/28 12:05:24;;;;;;;6.93;3.53;;;;;;;;;;5033708;28;20441;-67
2024/01/28 12:07:54;;;;;;;4.77;2.60;;;;;;;;;;5033497;28;20476;-67
2024/01/28 12:10:22;;;;;;;9.23;3.50;;;;;;;;;;5033469;28;20456;-67
2024/01/28 12:12:50;;;;;;;5.10;2.63;;;;;;;;;;5033672;28;20452;-67
2024/01/28 12:15:17;;;;;;;4.17;2.70;;;;;;;;;;5033771;28;20456;-67
2024/01/28 12:17:45;;;;;;;10.80;3.20;;;;;;;;;;5033515;28;20488;-67
2024/01/28 12:20:20;;;;;;;9.80;2.80;;;;;;;;;;5033672;28;20452;-67
2024/01/28 12:22:47;;;;;;;8.80;4.60;;;;;;;;;;5033840;28;20445;-67
2024/01/28 12:25:14;;;;;;;7.70;3.07;;;;;;;;;;5033330;28;20623;-67
2024/01/28 12:27:43;;;;;;;8.00;2.97;;;;;;;;;;5033528;28;20544;-67
2024/01/28 12:30:10;;;;;;;8.23;2.73;;;;;;;;;;5033107;28;20449;-67
2024/01/28 12:32:39;;;;;;;8.40;3.17;;;;;;;;;;5033138;28;20524;-67
2024/01/28 12:35:09;;;;;;;6.07;2.63;;;;;;;;;;5033034;28;20955;-67
2024/01/28 12:37:36;;;;;;;8.00;2.60;;;;;;;;;;5033393;28;20520;-67
2024/01/28 12:40:03;;;;;;;6.47;2.80;;;;;;;;;;5033210;28;20455;-67
2024/01/28 12:42:30;;;;;;;5.90;2.50;;;;;;;;;;5033208;28;20449;-67
2024/01/28 12:44:58;;;;;;;5.77;2.73;;;;;;;;;;5033053;28;20468;-67
2024/01/28 12:47:25;;;;;;;8.47;2.80;;;;;;;;;;5033004;28;20533;-67
2024/01/28 12:49:52;;;;;;;7.60;2.50;;;;;;;;;;5032959;28;20849;-67
2024/01/28 12:52:19;;;;;;;5.60;2.27;;;;;;;;;;5033034;28;20544;-67
2024/01/28 12:54:46;;;;;;;2.60;2.33;;;;;;;;;;5033110;28;20450;-67
2024/01/28 12:57:13;;;;;;;12.13;2.70;;;;;;;;;;5032975;28;20577;-67
2024/01/28 12:59:41;;;;;;;5.17;3.57;;;;;;;;;;5033141;28;20445;-67
2024/01/28 13:02:10;;;;;;;13.67;2.37;;;;;;;;;;5032835;28;20492;-67
2024/01/28 13:04:37;;;;;;;6.03;2.73;;;;;;;;;;5032953;28;20445;-67
2024/01/28 13:07:04;;;;;;;2.93;2.47;;;;;;;;;;5032903;28;20532;-67
2024/01/28 13:09:30;;;;;;;7.47;2.83;;;;;;;;;;5032568;28;21002;-67
2024/01/28 13:11:58;;;;;;;5.47;2.53;;;;;;;;;;5032830;28;20540;-67
2024/01/28 13:14:24;;;;;;;5.20;2.53;;;;;;;;;;5032775;28;20528;-67
2024/01/28 13:16:52;;;;;;;6.80;2.73;;;;;;;;;;5032518;28;20876;-67
2024/01/28 13:19:20;;;;;;;7.20;2.40;;;;;;;;;;5032842;28;20511;-67
2024/01/28 13:21:47;;;;;;;6.77;2.40;;;;;;;;;;5032747;28;20449;-67
2024/01/28 13:24:14;;;;;;;6.33;2.90;;;;;;;;;;5032770;28;20556;-67
2024/01/28 13:26:41;;;;;;;5.43;2.30;;;;;;;;;;5032621;28;20487;-67
2024/01/28 13:29:08;;;;;;;7.60;2.63;;;;;;;;;;5032582;28;20542;-68
2024/01/28 13:31:35;;;;;;;9.67;2.60;;;;;;;;;;5032771;28;20547;-67
2024/01/28 13:34:02;;;;;;;9.53;2.97;;;;;;;;;;5032651;28;20445;-67
2024/01/28 13:36:30;;;;;;;6.17;2.40;;;;;;;;;;5032676;28;20473;-67
2024/01/28 13:38:57;;;;;;;7.60;4.50;;;;;;;;;;5032509;28;20480;-67
2024/01/28 13:41:24;;;;;;;6.53;2.53;;;;;;;;;;5032551;28;20448;-67
2024/01/28 13:43:51;;;;;;;8.60;2.37;;;;;;;;;;5032392;28;20532;-68
2024/01/28 13:46:18;;;;;;;3.80;2.03;;;;;;;;;;5032539;28;20560;-68
2024/01/28 13:48:45;;;;;;;6.27;2.70;;;;;;;;;;5032527;28;20563;-68
2024/01/28 13:51:12;;;;;;;5.63;2.10;;;;;;;;;;5035482;28;20537;-68
2024/01/28 13:53:41;;;;;;;7.70;2.53;;;;;;;;;;5036175;28;21028;-68
2024/01/28 13:56:08;;;;;;;6.40;2.23;;;;;;;;;;5036063;28;20473;-67
2024/01/28 13:58:36;;;;;;;9.90;2.10;;;;;;;;;;5036324;28;20544;-68
2024/01/28 14:01:03;;;;;;;5.83;2.07;;;;;;;;;;5036187;28;20445;-68
2024/01/28 14:03:30;;;;;;;5.10;2.63;;;;;;;;;;5036177;28;20981;-67
2024/01/28 14:05:57;;;;;;;5.17;2.10;;;;;;;;;;5036002;28;20445;-67
2024/01/28 14:08:24;;;;;;;4.77;2.50;;;;;;;;;;5035877;28;20448;-67
2024/01/28 14:10:52;;;;;;;5.00;2.33;;;;;;;;;;5035781;28;20856;-68
2024/01/28 14:13:19;;;;;;;2.80;1.97;;;;;;;;;;5035939;28;20472;-67
2024/01/28 14:15:46;;;;;;;3.83;2.33;;;;;;;;;;5035854;28;20532;-67
2024/01/28 14:18:13;;;;;;;3.23;2.97;;;;;;;;;;5035711;28;20481;-68
2024/01/28 14:20:40;;;;;;;7.13;2.33;;;;;;;;;;5035604;28;20541;-67
2024/01/28 14:23:07;;;;;;;3.20;1.80;;;;;;;;;;5035231;28;20488;-67
2024/01/28 14:25:34;;;;;;;10.53;2.20;;;;;;;;;;5035262;28;20488;-67
2024/01/28 14:28:03;;;;;;;3.73;1.80;;;;;;;;;;5035514;28;20451;-67
2024/01/28 14:30:30;;;;;;;5.17;1.97;;;;;;;;;;5035431;28;21041;-67
2024/01/28 14:32:57;;;;;;;4.80;2.03;;;;;;;;;;5035355;28;20540;-68
2024/01/28 14:35:24;;;;;;;5.73;2.50;;;;;;;;;;5035463;28;20530;-68
2024/01/28 14:37:51;;;;;;;3.90;2.10;;;;;;;;;;5035193;28;20564;-68
2024/01/28 14:40:18;;;;;;;2.20;2.00;;;;;;;;;;5035547;28;20536;-67